Pottsville, Texas
Current Conditions -  °F | °C
As of 1:15 AM on Saturday 20 Dec 2014 (Local Time) from KMNZ Reporting Station
Overcast Overcast  
Wind Chill:   Ceiling: 1500
Heat Index:   Visibility: 10mi
Dew Point:   Wind: 6mph
Humidity: 100%   Direction: 10°N
Pressure: 30.2"   Gusts: NA
Location:  31.67°N, 98.33°W
Report Text: KMNZ 200715Z AUTO 01005KT 10SM OVC015 08/08 A3020 RMK AO2 T00770077
Loading
Personal Weather Stations






























Interactive Weather Map New forecast layout! Learn more

10-Day Weather Forecast

Advertisements
Track Severe Weather on mobile